Byron, Minnesota
Current Conditions -  °F | °C
As of 1:14 PM on Tuesday 21 Oct 2014 (Local Time) from K9MN Reporting Station
Clear Clear  
Wind Chill: 12°   Ceiling: Unl
Heat Index: 12°   Visibility: 10mi
Dew Point:   Wind: 7mph
Humidity: 54%   Direction: 120°ESE
Pressure: 30.19"   Gusts: NA
Location:  44.03°N, 92.65°W
Report Text: K9MN 211814Z AUTO 12006KT 10SM CLR 12/03 A3019 RMK AO1 T01160026
Loading
Personal Weather Stations






























Interactive Weather Map
Tropical Storm Tracking
New forecast layout! Learn more

10-Day Weather Forecast

Advertisements
Track Severe Weather on mobile